sensor_id;sensor_type;location;lat;lon;timestamp;P1;durP1;ratioP1;P2;durP2;ratioP2
10463;SDS011;5279;42.048;24.638;2022-10-18T00:01:52;3.83;;;3.00;;
10463;SDS011;5279;42.048;24.638;2022-10-18T00:04:20;3.60;;;3.10;;
10463;SDS011;5279;42.048;24.638;2022-10-18T00:06:47;3.37;;;2.80;;
10463;SDS011;5279;42.048;24.638;2022-10-18T00:09:14;3.73;;;3.20;;
10463;SDS011;5279;42.048;24.638;2022-10-18T00:11:41;4.07;;;3.13;;
10463;SDS011;5279;42.048;24.638;2022-10-18T00:14:08;5.67;;;2.90;;
10463;SDS011;5279;42.048;24.638;2022-10-18T00:16:35;3.97;;;2.90;;
10463;SDS011;5279;42.048;24.638;2022-10-18T00:19:02;4.63;;;2.87;;
10463;SDS011;5279;42.048;24.638;2022-10-18T00:21:30;3.43;;;3.10;;
10463;SDS011;5279;42.048;24.638;2022-10-18T00:23:57;4.93;;;2.87;;
10463;SDS011;5279;42.048;24.638;2022-10-18T00:26:27;3.03;;;2.83;;
10463;SDS011;5279;42.048;24.638;2022-10-18T00:28:56;3.33;;;2.83;;
10463;SDS011;5279;42.048;24.638;2022-10-18T00:31:24;5.13;;;2.93;;
10463;SDS011;5279;42.048;24.638;2022-10-18T00:33:54;7.20;;;2.97;;
10463;SDS011;5279;42.048;24.638;2022-10-18T00:36:23;3.53;;;3.10;;
10463;SDS011;5279;42.048;24.638;2022-10-18T00:38:52;3.13;;;2.80;;
10463;SDS011;5279;42.048;24.638;2022-10-18T00:41:21;3.27;;;2.97;;
10463;SDS011;5279;42.048;24.638;2022-10-18T00:43:49;3.47;;;2.67;;
10463;SDS011;5279;42.048;24.638;2022-10-18T00:46:18;4.53;;;3.00;;
10463;SDS011;5279;42.048;24.638;2022-10-18T00:48:45;2.93;;;2.70;;
10463;SDS011;5279;42.048;24.638;2022-10-18T00:51:12;4.57;;;2.50;;
10463;SDS011;5279;42.048;24.638;2022-10-18T00:53:39;7.00;;;3.43;;
10463;SDS011;5279;42.048;24.638;2022-10-18T00:56:08;2.77;;;2.47;;
10463;SDS011;5279;42.048;24.638;2022-10-18T00:58:35;2.90;;;2.70;;
10463;SDS011;5279;42.048;24.638;2022-10-18T01:01:02;4.60;;;2.90;;
10463;SDS011;5279;42.048;24.638;2022-10-18T01:03:29;5.20;;;2.90;;
10463;SDS011;5279;42.048;24.638;2022-10-18T01:05:56;7.67;;;3.13;;
10463;SDS011;5279;42.048;24.638;2022-10-18T01:08:36;3.37;;;2.60;;
10463;SDS011;5279;42.048;24.638;2022-10-18T01:11:37;3.17;;;2.87;;
10463;SDS011;5279;42.048;24.638;2022-10-18T01:14:20;3.67;;;2.90;;
10463;SDS011;5279;42.048;24.638;2022-10-18T01:17:19;3.63;;;2.90;;
10463;SDS011;5279;42.048;24.638;2022-10-18T01:23:19;3.20;;;2.60;;
10463;SDS011;5279;42.048;24.638;2022-10-18T01:25:59;4.67;;;3.13;;
10463;SDS011;5279;42.048;24.638;2022-10-18T01:28:41;3.80;;;2.80;;
10463;SDS011;5279;42.048;24.638;2022-10-18T01:31:21;5.47;;;3.10;;
10463;SDS011;5279;42.048;24.638;2022-10-18T01:33:52;4.10;;;3.27;;
10463;SDS011;5279;42.048;24.638;2022-10-18T01:36:24;5.43;;;2.97;;
10463;SDS011;5279;42.048;24.638;2022-10-18T01:38:56;3.60;;;3.30;;
10463;SDS011;5279;42.048;24.638;2022-10-18T01:41:26;5.87;;;3.00;;
10463;SDS011;5279;42.048;24.638;2022-10-18T01:43:55;3.57;;;3.23;;
10463;SDS011;5279;42.048;24.638;2022-10-18T01:46:26;4.27;;;3.20;;
10463;SDS011;5279;42.048;24.638;2022-10-18T01:48:54;3.73;;;3.13;;
10463;SDS011;5279;42.048;24.638;2022-10-18T01:51:23;3.40;;;3.00;;
10463;SDS011;5279;42.048;24.638;2022-10-18T01:53:51;3.30;;;3.00;;
10463;SDS011;5279;42.048;24.638;2022-10-18T01:56:23;4.97;;;3.33;;
10463;SDS011;5279;42.048;24.638;2022-10-18T01:59:02;3.67;;;3.37;;
10463;SDS011;5279;42.048;24.638;2022-10-18T02:01:42;3.70;;;3.40;;
10463;SDS011;5279;42.048;24.638;2022-10-18T02:04:19;3.20;;;2.90;;
10463;SDS011;5279;42.048;24.638;2022-10-18T02:06:55;5.33;;;2.53;;
10463;SDS011;5279;42.048;24.638;2022-10-18T02:09:28;3.97;;;3.10;;
10463;SDS011;5279;42.048;24.638;2022-10-18T02:12:02;3.80;;;3.50;;
10463;SDS011;5279;42.048;24.638;2022-10-18T02:14:32;3.57;;;3.27;;
10463;SDS011;5279;42.048;24.638;2022-10-18T02:17:02;6.47;;;3.33;;
10463;SDS011;5279;42.048;24.638;2022-10-18T02:19:34;6.80;;;3.33;;
10463;SDS011;5279;42.048;24.638;2022-10-18T02:22:04;5.73;;;3.00;;
10463;SDS011;5279;42.048;24.638;2022-10-18T02:24:34;4.60;;;3.47;;
10463;SDS011;5279;42.048;24.638;2022-10-18T02:27:04;5.57;;;3.10;;
10463;SDS011;5279;42.048;24.638;2022-10-18T02:29:31;3.33;;;2.90;;
10463;SDS011;5279;42.048;24.638;2022-10-18T02:32:01;6.60;;;3.10;;
10463;SDS011;5279;42.048;24.638;2022-10-18T02:34:35;6.23;;;3.20;;
10463;SDS011;5279;42.048;24.638;2022-10-18T02:37:05;4.00;;;3.10;;
10463;SDS011;5279;42.048;24.638;2022-10-18T02:39:35;4.23;;;3.33;;
10463;SDS011;5279;42.048;24.638;2022-10-18T02:42:05;5.87;;;3.17;;
10463;SDS011;5279;42.048;24.638;2022-10-18T02:44:35;3.40;;;3.10;;
10463;SDS011;5279;42.048;24.638;2022-10-18T02:47:05;4.80;;;3.43;;
10463;SDS011;5279;42.048;24.638;2022-10-18T02:49:33;6.30;;;3.33;;
10463;SDS011;5279;42.048;24.638;2022-10-18T02:52:00;4.87;;;3.57;;
10463;SDS011;5279;42.048;24.638;2022-10-18T02:54:27;4.53;;;2.83;;
10463;SDS011;5279;42.048;24.638;2022-10-18T02:56:53;3.93;;;3.43;;
10463;SDS011;5279;42.048;24.638;2022-10-18T02:59:20;4.17;;;3.43;;
10463;SDS011;5279;42.048;24.638;2022-10-18T03:01:47;7.87;;;4.03;;
10463;SDS011;5279;42.048;24.638;2022-10-18T03:04:16;5.13;;;3.73;;
10463;SDS011;5279;42.048;24.638;2022-10-18T03:06:42;6.07;;;3.23;;
10463;SDS011;5279;42.048;24.638;2022-10-18T03:09:09;4.73;;;3.60;;
10463;SDS011;5279;42.048;24.638;2022-10-18T03:11:36;7.37;;;3.70;;
10463;SDS011;5279;42.048;24.638;2022-10-18T03:14:03;3.93;;;3.50;;
10463;SDS011;5279;42.048;24.638;2022-10-18T03:16:30;3.73;;;3.10;;
10463;SDS011;5279;42.048;24.638;2022-10-18T03:18:58;4.07;;;3.40;;
10463;SDS011;5279;42.048;24.638;2022-10-18T03:24:33;3.60;;;3.30;;
10463;SDS011;5279;42.048;24.638;2022-10-18T03:27:03;3.67;;;3.20;;
10463;SDS011;5279;42.048;24.638;2022-10-18T03:29:30;3.67;;;3.37;;
10463;SDS011;5279;42.048;24.638;2022-10-18T03:31:56;5.23;;;3.70;;
10463;SDS011;5279;42.048;24.638;2022-10-18T03:34:23;4.13;;;3.67;;
10463;SDS011;5279;42.048;24.638;2022-10-18T03:36:50;3.90;;;3.50;;
10463;SDS011;5279;42.048;24.638;2022-10-18T03:39:19;5.00;;;3.60;;
10463;SDS011;5279;42.048;24.638;2022-10-18T03:41:47;4.37;;;3.83;;
10463;SDS011;5279;42.048;24.638;2022-10-18T03:44:14;3.50;;;3.20;;
10463;SDS011;5279;42.048;24.638;2022-10-18T03:46:41;3.57;;;3.27;;
10463;SDS011;5279;42.048;24.638;2022-10-18T03:49:08;5.03;;;3.40;;
10463;SDS011;5279;42.048;24.638;2022-10-18T03:51:35;4.00;;;3.60;;
10463;SDS011;5279;42.048;24.638;2022-10-18T03:54:02;3.70;;;3.37;;
10463;SDS011;5279;42.048;24.638;2022-10-18T03:59:29;4.97;;;3.57;;
10463;SDS011;5279;42.048;24.638;2022-10-18T04:01:55;4.13;;;3.30;;
10463;SDS011;5279;42.048;24.638;2022-10-18T04:04:22;5.17;;;3.63;;
10463;SDS011;5279;42.048;24.638;2022-10-18T04:06:49;5.47;;;3.90;;
10463;SDS011;5279;42.048;24.638;2022-10-18T04:09:16;4.13;;;3.50;;
10463;SDS011;5279;42.048;24.638;2022-10-18T04:11:43;5.33;;;3.87;;
10463;SDS011;5279;42.048;24.638;2022-10-18T04:14:11;5.80;;;3.33;;
10463;SDS011;5279;42.048;24.638;2022-10-18T04:16:41;7.80;;;3.33;;
10463;SDS011;5279;42.048;24.638;2022-10-18T04:19:08;3.60;;;3.30;;
10463;SDS011;5279;42.048;24.638;2022-10-18T04:21:35;4.73;;;3.60;;
10463;SDS011;5279;42.048;24.638;2022-10-18T04:24:01;5.73;;;3.77;;
10463;SDS011;5279;42.048;24.638;2022-10-18T04:26:29;4.27;;;3.53;;
10463;SDS011;5279;42.048;24.638;2022-10-18T04:28:55;3.73;;;3.43;;
10463;SDS011;5279;42.048;24.638;2022-10-18T04:31:24;4.90;;;3.50;;
10463;SDS011;5279;42.048;24.638;2022-10-18T04:33:50;6.57;;;3.60;;
10463;SDS011;5279;42.048;24.638;2022-10-18T04:36:17;3.83;;;3.53;;
10463;SDS011;5279;42.048;24.638;2022-10-18T04:38:44;5.67;;;3.73;;
10463;SDS011;5279;42.048;24.638;2022-10-18T04:41:11;7.67;;;3.57;;
10463;SDS011;5279;42.048;24.638;2022-10-18T04:43:38;5.80;;;3.63;;
10463;SDS011;5279;42.048;24.638;2022-10-18T04:46:05;3.93;;;3.63;;
10463;SDS011;5279;42.048;24.638;2022-10-18T04:48:33;4.57;;;3.43;;
10463;SDS011;5279;42.048;24.638;2022-10-18T04:51:02;4.60;;;3.50;;
10463;SDS011;5279;42.048;24.638;2022-10-18T04:53:38;8.50;;;3.87;;
10463;SDS011;5279;42.048;24.638;2022-10-18T04:56:05;5.13;;;3.60;;
10463;SDS011;5279;42.048;24.638;2022-10-18T04:58:32;3.87;;;3.47;;
10463;SDS011;5279;42.048;24.638;2022-10-18T05:01:11;3.63;;;3.27;;
10463;SDS011;5279;42.048;24.638;2022-10-18T05:03:39;5.03;;;3.73;;
10463;SDS011;5279;42.048;24.638;2022-10-18T05:06:06;4.97;;;3.87;;
10463;SDS011;5279;42.048;24.638;2022-10-18T05:08:34;4.43;;;3.67;;
10463;SDS011;5279;42.048;24.638;2022-10-18T05:11:02;3.80;;;3.10;;
10463;SDS011;5279;42.048;24.638;2022-10-18T05:13:29;4.63;;;3.20;;
10463;SDS011;5279;42.048;24.638;2022-10-18T05:15:56;4.53;;;3.40;;
10463;SDS011;5279;42.048;24.638;2022-10-18T05:18:24;3.57;;;3.27;;
10463;SDS011;5279;42.048;24.638;2022-10-18T05:20:53;3.87;;;3.10;;
10463;SDS011;5279;42.048;24.638;2022-10-18T05:23:20;3.70;;;3.33;;
10463;SDS011;5279;42.048;24.638;2022-10-18T05:25:47;3.67;;;3.30;;
10463;SDS011;5279;42.048;24.638;2022-10-18T05:28:17;4.77;;;3.30;;
10463;SDS011;5279;42.048;24.638;2022-10-18T05:30:44;3.63;;;2.80;;
10463;SDS011;5279;42.048;24.638;2022-10-18T05:33:11;4.90;;;3.17;;
10463;SDS011;5279;42.048;24.638;2022-10-18T05:35:38;4.07;;;2.90;;
10463;SDS011;5279;42.048;24.638;2022-10-18T05:38:06;3.67;;;3.10;;
10463;SDS011;5279;42.048;24.638;2022-10-18T05:40:33;5.30;;;3.13;;
10463;SDS011;5279;42.048;24.638;2022-10-18T05:43:00;4.60;;;3.07;;
10463;SDS011;5279;42.048;24.638;2022-10-18T05:45:26;4.37;;;2.77;;
10463;SDS011;5279;42.048;24.638;2022-10-18T05:47:53;3.50;;;3.20;;
10463;SDS011;5279;42.048;24.638;2022-10-18T05:50:20;2.97;;;2.67;;
10463;SDS011;5279;42.048;24.638;2022-10-18T05:52:49;3.77;;;2.90;;
10463;SDS011;5279;42.048;24.638;2022-10-18T05:55:18;4.63;;;2.90;;
10463;SDS011;5279;42.048;24.638;2022-10-18T05:57:47;8.00;;;3.00;;
10463;SDS011;5279;42.048;24.638;2022-10-18T06:00:14;4.20;;;2.70;;
10463;SDS011;5279;42.048;24.638;2022-10-18T06:02:42;3.03;;;2.77;;
10463;SDS011;5279;42.048;24.638;2022-10-18T06:05:09;7.50;;;3.60;;
10463;SDS011;5279;42.048;24.638;2022-10-18T06:07:45;5.00;;;3.00;;
10463;SDS011;5279;42.048;24.638;2022-10-18T06:10:22;4.43;;;3.30;;
10463;SDS011;5279;42.048;24.638;2022-10-18T06:12:49;5.13;;;3.17;;
10463;SDS011;5279;42.048;24.638;2022-10-18T06:15:16;9.27;;;3.73;;
10463;SDS011;5279;42.048;24.638;2022-10-18T06:17:43;5.00;;;3.80;;
10463;SDS011;5279;42.048;24.638;2022-10-18T06:20:10;5.47;;;3.70;;
10463;SDS011;5279;42.048;24.638;2022-10-18T06:22:37;5.87;;;4.07;;
10463;SDS011;5279;42.048;24.638;2022-10-18T06:25:10;7.00;;;4.77;;
10463;SDS011;5279;42.048;24.638;2022-10-18T06:27:38;4.57;;;3.60;;
10463;SDS011;5279;42.048;24.638;2022-10-18T06:30:05;5.23;;;3.07;;
10463;SDS011;5279;42.048;24.638;2022-10-18T06:32:33;3.60;;;3.30;;
10463;SDS011;5279;42.048;24.638;2022-10-18T06:35:00;6.33;;;3.50;;
10463;SDS011;5279;42.048;24.638;2022-10-18T06:37:27;5.13;;;2.97;;
10463;SDS011;5279;42.048;24.638;2022-10-18T06:39:54;3.87;;;3.47;;
10463;SDS011;5279;42.048;24.638;2022-10-18T06:42:21;5.97;;;4.00;;
10463;SDS011;5279;42.048;24.638;2022-10-18T06:44:49;5.67;;;4.07;;
10463;SDS011;5279;42.048;24.638;2022-10-18T06:47:16;6.90;;;4.30;;
10463;SDS011;5279;42.048;24.638;2022-10-18T06:49:43;6.57;;;4.13;;
10463;SDS011;5279;42.048;24.638;2022-10-18T06:52:10;8.57;;;4.63;;
10463;SDS011;5279;42.048;24.638;2022-10-18T06:54:37;8.23;;;4.90;;
10463;SDS011;5279;42.048;24.638;2022-10-18T06:57:04;7.67;;;5.60;;
10463;SDS011;5279;42.048;24.638;2022-10-18T06:59:31;12.43;;;6.00;;
10463;SDS011;5279;42.048;24.638;2022-10-18T07:01:59;9.87;;;5.50;;
10463;SDS011;5279;42.048;24.638;2022-10-18T07:04:27;7.90;;;5.13;;
10463;SDS011;5279;42.048;24.638;2022-10-18T07:06:54;5.93;;;4.47;;
10463;SDS011;5279;42.048;24.638;2022-10-18T07:09:21;7.13;;;4.20;;
10463;SDS011;5279;42.048;24.638;2022-10-18T07:11:48;6.27;;;4.00;;
10463;SDS011;5279;42.048;24.638;2022-10-18T07:14:17;9.40;;;4.57;;
10463;SDS011;5279;42.048;24.638;2022-10-18T07:16:51;5.83;;;4.27;;
10463;SDS011;5279;42.048;24.638;2022-10-18T07:19:20;5.43;;;4.07;;
10463;SDS011;5279;42.048;24.638;2022-10-18T07:21:47;4.53;;;3.97;;
10463;SDS011;5279;42.048;24.638;2022-10-18T07:24:14;4.87;;;4.10;;
10463;SDS011;5279;42.048;24.638;2022-10-18T07:26:41;6.77;;;4.30;;
10463;SDS011;5279;42.048;24.638;2022-10-18T07:29:08;4.70;;;3.43;;
10463;SDS011;5279;42.048;24.638;2022-10-18T07:31:37;3.70;;;3.37;;
10463;SDS011;5279;42.048;24.638;2022-10-18T07:34:05;5.00;;;3.30;;
10463;SDS011;5279;42.048;24.638;2022-10-18T07:36:34;5.73;;;3.37;;
10463;SDS011;5279;42.048;24.638;2022-10-18T07:39:01;6.47;;;3.63;;
10463;SDS011;5279;42.048;24.638;2022-10-18T07:41:31;4.20;;;3.60;;
10463;SDS011;5279;42.048;24.638;2022-10-18T07:43:58;4.53;;;3.40;;
10463;SDS011;5279;42.048;24.638;2022-10-18T07:46:26;5.17;;;3.33;;
10463;SDS011;5279;42.048;24.638;2022-10-18T07:48:53;3.73;;;3.10;;
10463;SDS011;5279;42.048;24.638;2022-10-18T07:51:20;3.87;;;3.27;;
10463;SDS011;5279;42.048;24.638;2022-10-18T07:53:48;3.53;;;3.17;;
10463;SDS011;5279;42.048;24.638;2022-10-18T07:56:16;5.47;;;3.20;;
10463;SDS011;5279;42.048;24.638;2022-10-18T07:58:45;6.67;;;3.60;;
10463;SDS011;5279;42.048;24.638;2022-10-18T08:01:13;3.63;;;3.27;;
10463;SDS011;5279;42.048;24.638;2022-10-18T08:03:41;5.00;;;3.20;;
10463;SDS011;5279;42.048;24.638;2022-10-18T08:06:09;4.50;;;3.13;;
10463;SDS011;5279;42.048;24.638;2022-10-18T08:08:37;3.77;;;3.20;;
10463;SDS011;5279;42.048;24.638;2022-10-18T08:11:07;5.67;;;3.67;;
10463;SDS011;5279;42.048;24.638;2022-10-18T08:13:35;4.23;;;3.00;;
10463;SDS011;5279;42.048;24.638;2022-10-18T08:16:03;6.13;;;3.07;;
10463;SDS011;5279;42.048;24.638;2022-10-18T08:18:31;3.73;;;2.90;;
10463;SDS011;5279;42.048;24.638;2022-10-18T08:20:58;3.90;;;3.27;;
10463;SDS011;5279;42.048;24.638;2022-10-18T08:23:26;4.50;;;3.40;;
10463;SDS011;5279;42.048;24.638;2022-10-18T08:25:53;5.43;;;3.30;;
10463;SDS011;5279;42.048;24.638;2022-10-18T08:28:21;4.70;;;3.50;;
10463;SDS011;5279;42.048;24.638;2022-10-18T08:30:48;3.73;;;3.37;;
10463;SDS011;5279;42.048;24.638;2022-10-18T08:33:15;4.80;;;3.60;;
10463;SDS011;5279;42.048;24.638;2022-10-18T08:35:42;6.37;;;3.90;;
10463;SDS011;5279;42.048;24.638;2022-10-18T08:38:09;6.67;;;3.70;;
10463;SDS011;5279;42.048;24.638;2022-10-18T08:40:41;6.53;;;3.90;;
10463;SDS011;5279;42.048;24.638;2022-10-18T08:43:10;9.27;;;3.97;;
10463;SDS011;5279;42.048;24.638;2022-10-18T08:45:48;6.20;;;3.90;;
10463;SDS011;5279;42.048;24.638;2022-10-18T08:48:20;5.80;;;3.50;;
10463;SDS011;5279;42.048;24.638;2022-10-18T08:50:53;4.63;;;3.70;;
10463;SDS011;5279;42.048;24.638;2022-10-18T08:53:23;5.23;;;3.30;;
10463;SDS011;5279;42.048;24.638;2022-10-18T08:55:56;5.63;;;3.27;;
10463;SDS011;5279;42.048;24.638;2022-10-18T08:58:29;4.43;;;3.43;;
10463;SDS011;5279;42.048;24.638;2022-10-18T09:01:01;5.93;;;3.10;;
10463;SDS011;5279;42.048;24.638;2022-10-18T09:03:47;3.43;;;3.13;;
10463;SDS011;5279;42.048;24.638;2022-10-18T09:06:29;5.00;;;3.30;;
10463;SDS011;5279;42.048;24.638;2022-10-18T09:09:02;5.97;;;3.10;;
10463;SDS011;5279;42.048;24.638;2022-10-18T09:11:54;2.95;;;2.72;;
10463;SDS011;5279;42.048;24.638;2022-10-18T09:14:35;3.63;;;3.03;;
10463;SDS011;5279;42.048;24.638;2022-10-18T09:17:28;3.97;;;3.00;;
10463;SDS011;5279;42.048;24.638;2022-10-18T09:20:06;7.80;;;2.92;;
10463;SDS011;5279;42.048;24.638;2022-10-18T09:22:55;4.57;;;2.78;;
10463;SDS011;5279;42.048;24.638;2022-10-18T09:25:32;3.95;;;3.10;;
10463;SDS011;5279;42.048;24.638;2022-10-18T09:28:08;6.47;;;2.90;;
10463;SDS011;5279;42.048;24.638;2022-10-18T09:30:43;5.60;;;2.60;;
10463;SDS011;5279;42.048;24.638;2022-10-18T09:33:18;3.40;;;2.80;;
10463;SDS011;5279;42.048;24.638;2022-10-18T09:35:53;4.63;;;2.60;;
10463;SDS011;5279;42.048;24.638;2022-10-18T09:38:24;3.63;;;2.92;;
10463;SDS011;5279;42.048;24.638;2022-10-18T09:40:55;3.85;;;3.05;;
10463;SDS011;5279;42.048;24.638;2022-10-18T09:43:37;4.07;;;2.75;;
10463;SDS011;5279;42.048;24.638;2022-10-18T09:46:11;5.88;;;3.30;;
10463;SDS011;5279;42.048;24.638;2022-10-18T09:48:42;4.07;;;2.97;;
10463;SDS011;5279;42.048;24.638;2022-10-18T09:51:13;7.13;;;3.60;;
10463;SDS011;5279;42.048;24.638;2022-10-18T09:53:50;4.80;;;3.17;;
10463;SDS011;5279;42.048;24.638;2022-10-18T09:56:28;3.72;;;2.55;;
10463;SDS011;5279;42.048;24.638;2022-10-18T09:58:58;6.95;;;2.72;;
10463;SDS011;5279;42.048;24.638;2022-10-18T10:01:25;3.20;;;2.78;;
10463;SDS011;5279;42.048;24.638;2022-10-18T10:03:56;5.45;;;2.83;;
10463;SDS011;5279;42.048;24.638;2022-10-18T10:06:27;4.70;;;3.05;;
10463;SDS011;5279;42.048;24.638;2022-10-18T10:08:57;7.80;;;3.08;;
10463;SDS011;5279;42.048;24.638;2022-10-18T10:11:27;4.38;;;2.65;;
10463;SDS011;5279;42.048;24.638;2022-10-18T10:13:56;6.05;;;2.95;;
10463;SDS011;5279;42.048;24.638;2022-10-18T10:16:32;4.88;;;2.75;;
10463;SDS011;5279;42.048;24.638;2022-10-18T10:19:00;5.05;;;2.67;;
10463;SDS011;5279;42.048;24.638;2022-10-18T10:21:27;5.05;;;2.50;;
10463;SDS011;5279;42.048;24.638;2022-10-18T10:23:55;3.38;;;2.90;;
10463;SDS011;5279;42.048;24.638;2022-10-18T10:26:26;3.13;;;2.22;;
10463;SDS011;5279;42.048;24.638;2022-10-18T10:28:54;4.55;;;2.50;;
10463;SDS011;5279;42.048;24.638;2022-10-18T10:31:25;6.45;;;2.67;;
10463;SDS011;5279;42.048;24.638;2022-10-18T10:33:57;5.35;;;2.60;;
10463;SDS011;5279;42.048;24.638;2022-10-18T10:36:28;4.57;;;2.38;;
10463;SDS011;5279;42.048;24.638;2022-10-18T10:39:02;4.85;;;2.30;;
10463;SDS011;5279;42.048;24.638;2022-10-18T10:41:30;7.40;;;2.58;;
10463;SDS011;5279;42.048;24.638;2022-10-18T10:43:59;4.20;;;2.40;;
10463;SDS011;5279;42.048;24.638;2022-10-18T10:46:32;3.83;;;2.40;;
10463;SDS011;5279;42.048;24.638;2022-10-18T10:49:02;3.53;;;2.83;;
10463;SDS011;5279;42.048;24.638;2022-10-18T10:51:30;5.63;;;2.88;;
10463;SDS011;5279;42.048;24.638;2022-10-18T10:54:01;5.82;;;2.60;;
10463;SDS011;5279;42.048;24.638;2022-10-18T10:56:30;4.72;;;2.70;;
10463;SDS011;5279;42.048;24.638;2022-10-18T10:59:01;6.82;;;2.75;;
10463;SDS011;5279;42.048;24.638;2022-10-18T11:01:36;2.80;;;2.50;;
10463;SDS011;5279;42.048;24.638;2022-10-18T11:06:59;4.22;;;3.20;;
10463;SDS011;5279;42.048;24.638;2022-10-18T11:09:40;3.28;;;2.88;;
10463;SDS011;5279;42.048;24.638;2022-10-18T11:12:22;3.53;;;2.60;;
10463;SDS011;5279;42.048;24.638;2022-10-18T11:14:56;3.42;;;3.00;;
10463;SDS011;5279;42.048;24.638;2022-10-18T11:17:41;6.53;;;2.88;;
10463;SDS011;5279;42.048;24.638;2022-10-18T11:20:18;4.53;;;2.90;;
10463;SDS011;5279;42.048;24.638;2022-10-18T11:25:48;3.28;;;2.90;;
10463;SDS011;5279;42.048;24.638;2022-10-18T11:28:32;3.78;;;2.90;;
10463;SDS011;5279;42.048;24.638;2022-10-18T11:31:12;3.70;;;2.80;;
10463;SDS011;5279;42.048;24.638;2022-10-18T11:33:47;4.18;;;2.60;;
10463;SDS011;5279;42.048;24.638;2022-10-18T11:36:28;3.70;;;2.42;;
10463;SDS011;5279;42.048;24.638;2022-10-18T11:39:05;4.93;;;2.90;;
10463;SDS011;5279;42.048;24.638;2022-10-18T11:41:43;3.15;;;2.60;;
10463;SDS011;5279;42.048;24.638;2022-10-18T11:44:18;3.60;;;2.58;;
10463;SDS011;5279;42.048;24.638;2022-10-18T11:46:56;4.60;;;2.70;;
10463;SDS011;5279;42.048;24.638;2022-10-18T11:49:36;7.57;;;3.00;;
10463;SDS011;5279;42.048;24.638;2022-10-18T11:52:16;3.72;;;2.50;;
10463;SDS011;5279;42.048;24.638;2022-10-18T11:55:09;3.88;;;2.67;;
10463;SDS011;5279;42.048;24.638;2022-10-18T11:57:49;4.45;;;2.40;;
10463;SDS011;5279;42.048;24.638;2022-10-18T12:00:33;3.35;;;2.88;;
10463;SDS011;5279;42.048;24.638;2022-10-18T12:06:04;4.40;;;2.67;;
10463;SDS011;5279;42.048;24.638;2022-10-18T12:08:37;3.30;;;2.55;;
10463;SDS011;5279;42.048;24.638;2022-10-18T12:11:09;5.28;;;2.70;;
10463;SDS011;5279;42.048;24.638;2022-10-18T12:13:43;5.00;;;2.60;;
10463;SDS011;5279;42.048;24.638;2022-10-18T12:16:14;3.03;;;2.42;;
10463;SDS011;5279;42.048;24.638;2022-10-18T12:18:48;8.30;;;2.97;;
10463;SDS011;5279;42.048;24.638;2022-10-18T12:21:19;3.65;;;2.53;;
10463;SDS011;5279;42.048;24.638;2022-10-18T12:23:51;3.47;;;2.63;;
10463;SDS011;5279;42.048;24.638;2022-10-18T12:26:21;4.53;;;2.17;;
10463;SDS011;5279;42.048;24.638;2022-10-18T12:28:52;2.67;;;2.42;;
10463;SDS011;5279;42.048;24.638;2022-10-18T12:31:25;4.75;;;2.80;;
10463;SDS011;5279;42.048;24.638;2022-10-18T12:33:59;6.72;;;2.70;;
10463;SDS011;5279;42.048;24.638;2022-10-18T12:39:36;5.65;;;3.00;;
10463;SDS011;5279;42.048;24.638;2022-10-18T12:42:13;5.38;;;2.83;;
10463;SDS011;5279;42.048;24.638;2022-10-18T12:44:44;3.53;;;2.45;;
10463;SDS011;5279;42.048;24.638;2022-10-18T12:47:19;4.20;;;2.85;;
10463;SDS011;5279;42.048;24.638;2022-10-18T12:50:02;5.72;;;2.83;;
10463;SDS011;5279;42.048;24.638;2022-10-18T12:52:31;3.63;;;2.88;;
10463;SDS011;5279;42.048;24.638;2022-10-18T12:55:12;4.10;;;2.55;;
10463;SDS011;5279;42.048;24.638;2022-10-18T12:58:01;4.18;;;2.53;;
10463;SDS011;5279;42.048;24.638;2022-10-18T13:00:53;6.75;;;2.78;;
10463;SDS011;5279;42.048;24.638;2022-10-18T13:03:37;2.83;;;2.60;;
10463;SDS011;5279;42.048;24.638;2022-10-18T13:06:25;4.93;;;2.70;;
10463;SDS011;5279;42.048;24.638;2022-10-18T13:09:32;4.93;;;2.58;;
10463;SDS011;5279;42.048;24.638;2022-10-18T13:15:18;8.18;;;2.60;;
10463;SDS011;5279;42.048;24.638;2022-10-18T13:18:02;3.97;;;2.53;;
10463;SDS011;5279;42.048;24.638;2022-10-18T13:20:41;4.55;;;2.83;;
10463;SDS011;5279;42.048;24.638;2022-10-18T13:23:21;6.22;;;2.50;;
10463;SDS011;5279;42.048;24.638;2022-10-18T13:26:00;5.10;;;2.75;;
10463;SDS011;5279;42.048;24.638;2022-10-18T13:28:38;3.78;;;2.92;;
10463;SDS011;5279;42.048;24.638;2022-10-18T13:31:14;3.38;;;2.53;;
10463;SDS011;5279;42.048;24.638;2022-10-18T13:33:47;3.65;;;2.60;;
10463;SDS011;5279;42.048;24.638;2022-10-18T13:36:21;4.05;;;2.40;;
10463;SDS011;5279;42.048;24.638;2022-10-18T13:44:54;5.43;;;2.28;;
10463;SDS011;5279;42.048;24.638;2022-10-18T13:51:11;8.07;;;2.90;;
10463;SDS011;5279;42.048;24.638;2022-10-18T13:53:56;5.60;;;2.72;;
10463;SDS011;5279;42.048;24.638;2022-10-18T13:56:45;5.22;;;2.63;;
10463;SDS011;5279;42.048;24.638;2022-10-18T14:02:33;3.88;;;2.55;;
10463;SDS011;5279;42.048;24.638;2022-10-18T14:05:18;5.30;;;2.80;;
10463;SDS011;5279;42.048;24.638;2022-10-18T14:07:58;3.15;;;2.65;;
10463;SDS011;5279;42.048;24.638;2022-10-18T14:10:31;3.05;;;2.38;;
10463;SDS011;5279;42.048;24.638;2022-10-18T14:13:06;2.90;;;2.28;;
10463;SDS011;5279;42.048;24.638;2022-10-18T14:15:46;3.90;;;2.72;;
10463;SDS011;5279;42.048;24.638;2022-10-18T14:18:17;4.28;;;2.65;;
10463;SDS011;5279;42.048;24.638;2022-10-18T14:20:50;3.33;;;2.60;;
10463;SDS011;5279;42.048;24.638;2022-10-18T14:23:20;5.78;;;2.60;;
10463;SDS011;5279;42.048;24.638;2022-10-18T14:25:54;4.57;;;2.40;;
10463;SDS011;5279;42.048;24.638;2022-10-18T14:28:30;4.28;;;2.38;;
10463;SDS011;5279;42.048;24.638;2022-10-18T14:30:58;4.88;;;2.30;;
10463;SDS011;5279;42.048;24.638;2022-10-18T14:33:30;7.35;;;2.78;;
10463;SDS011;5279;42.048;24.638;2022-10-18T14:36:02;4.05;;;2.40;;
10463;SDS011;5279;42.048;24.638;2022-10-18T14:38:33;4.95;;;2.50;;
10463;SDS011;5279;42.048;24.638;2022-10-18T14:41:05;5.00;;;2.80;;
10463;SDS011;5279;42.048;24.638;2022-10-18T14:43:39;4.37;;;2.77;;
10463;SDS011;5279;42.048;24.638;2022-10-18T14:46:14;3.37;;;2.50;;
10463;SDS011;5279;42.048;24.638;2022-10-18T14:48:52;4.47;;;2.73;;
10463;SDS011;5279;42.048;24.638;2022-10-18T14:51:26;4.93;;;2.70;;
10463;SDS011;5279;42.048;24.638;2022-10-18T14:53:55;3.70;;;2.60;;
10463;SDS011;5279;42.048;24.638;2022-10-18T14:56:23;3.23;;;2.87;;
10463;SDS011;5279;42.048;24.638;2022-10-18T14:58:52;5.03;;;2.70;;
10463;SDS011;5279;42.048;24.638;2022-10-18T15:01:23;6.00;;;2.60;;
10463;SDS011;5279;42.048;24.638;2022-10-18T15:03:55;4.20;;;2.80;;
10463;SDS011;5279;42.048;24.638;2022-10-18T15:06:24;3.00;;;2.60;;
10463;SDS011;5279;42.048;24.638;2022-10-18T15:08:53;6.07;;;3.20;;
10463;SDS011;5279;42.048;24.638;2022-10-18T15:11:22;4.40;;;3.17;;
10463;SDS011;5279;42.048;24.638;2022-10-18T15:13:51;4.10;;;2.90;;
10463;SDS011;5279;42.048;24.638;2022-10-18T15:16:22;9.93;;;3.77;;
10463;SDS011;5279;42.048;24.638;2022-10-18T15:21:53;8.93;;;5.87;;
10463;SDS011;5279;42.048;24.638;2022-10-18T15:27:34;5.27;;;3.30;;
10463;SDS011;5279;42.048;24.638;2022-10-18T15:30:04;3.37;;;2.90;;
10463;SDS011;5279;42.048;24.638;2022-10-18T15:32:33;5.60;;;2.70;;
10463;SDS011;5279;42.048;24.638;2022-10-18T15:35:12;5.13;;;2.90;;
10463;SDS011;5279;42.048;24.638;2022-10-18T15:37:42;6.07;;;3.13;;
10463;SDS011;5279;42.048;24.638;2022-10-18T15:40:18;5.23;;;3.30;;
10463;SDS011;5279;42.048;24.638;2022-10-18T15:42:56;4.33;;;2.90;;
10463;SDS011;5279;42.048;24.638;2022-10-18T15:45:33;6.10;;;2.87;;
10463;SDS011;5279;42.048;24.638;2022-10-18T15:48:15;3.57;;;3.27;;
10463;SDS011;5279;42.048;24.638;2022-10-18T15:50:47;3.30;;;3.00;;
10463;SDS011;5279;42.048;24.638;2022-10-18T15:53:32;4.63;;;3.23;;
10463;SDS011;5279;42.048;24.638;2022-10-18T15:56:02;5.47;;;3.67;;
10463;SDS011;5279;42.048;24.638;2022-10-18T15:58:36;6.13;;;3.07;;